createdAt,value
2017-08-27T00:01:59.726Z,69.10
2017-08-27T00:04:27.219Z,69.30
2017-08-27T00:06:54.699Z,69.30
2017-08-27T00:09:22.191Z,69.40
2017-08-27T00:11:49.667Z,69.30
2017-08-27T00:14:17.166Z,68.70
2017-08-27T00:16:44.645Z,68.90
2017-08-27T00:19:12.124Z,68.60
2017-08-27T00:21:39.625Z,69.30
2017-08-27T00:24:07.116Z,68.80
2017-08-27T00:26:34.628Z,68.40
2017-08-27T00:29:02.210Z,69.30
2017-08-27T00:31:29.689Z,69.80
2017-08-27T00:33:57.181Z,69.60
2017-08-27T00:36:24.659Z,69.30
2017-08-27T00:38:52.160Z,69.50
2017-08-27T00:41:19.639Z,69.50
2017-08-27T00:43:47.120Z,70.00
2017-08-27T00:46:14.613Z,69.50
2017-08-27T00:48:42.093Z,68.60
2017-08-27T00:51:09.595Z,68.60
2017-08-27T00:53:37.070Z,68.40
2017-08-27T00:56:04.555Z,68.10
2017-08-27T00:58:32.065Z,68.20
2017-08-27T01:00:59.539Z,67.90
2017-08-27T01:03:27.040Z,67.70
2017-08-27T01:05:54.516Z,68.20
2017-08-27T01:08:22.035Z,68.50
2017-08-27T01:10:49.606Z,68.80
2017-08-27T01:13:17.083Z,68.80
2017-08-27T01:15:44.591Z,69.30
2017-08-27T01:18:12.067Z,68.40
2017-08-27T01:20:39.552Z,68.10
2017-08-27T01:23:07.048Z,68.60
2017-08-27T01:25:34.535Z,68.50
2017-08-27T01:28:02.036Z,68.90
2017-08-27T01:30:29.511Z,69.20
2017-08-27T01:32:56.987Z,69.10
2017-08-27T01:35:24.478Z,68.90
2017-08-27T01:37:51.959Z,69.10
2017-08-27T01:40:19.468Z,69.50
2017-08-27T01:42:46.947Z,69.50
2017-08-27T01:45:14.424Z,69.10
2017-08-27T01:47:41.927Z,69.20
2017-08-27T01:50:09.416Z,69.30
2017-08-27T01:52:36.913Z,70.00
2017-08-27T01:55:04.396Z,69.70
2017-08-27T01:57:31.873Z,69.90
2017-08-27T01:59:59.359Z,69.90
2017-08-27T02:02:26.843Z,69.80
2017-08-27T02:04:54.344Z,69.80
2017-08-27T02:07:21.824Z,70.10
2017-08-27T02:09:49.308Z,70.30
2017-08-27T02:12:16.799Z,70.80
2017-08-27T02:14:44.325Z,70.00
2017-08-27T02:17:11.828Z,69.90
2017-08-27T02:19:39.299Z,70.00
2017-08-27T02:22:06.767Z,70.10
2017-08-27T02:24:34.364Z,70.10
2017-08-27T02:27:01.840Z,70.00
2017-08-27T02:29:29.339Z,69.70
2017-08-27T02:31:56.817Z,69.60
2017-08-27T02:34:24.304Z,69.50
2017-08-27T02:36:51.798Z,69.80
2017-08-27T02:39:19.278Z,69.70
2017-08-27T02:41:46.868Z,69.50
2017-08-27T02:44:14.423Z,69.60
2017-08-27T02:46:41.905Z,69.70
2017-08-27T02:49:09.404Z,70.10
2017-08-27T02:51:36.879Z,69.70
2017-08-27T02:54:04.380Z,69.60
2017-08-27T02:56:31.859Z,69.80
2017-08-27T02:58:59.339Z,69.90
2017-08-27T03:01:26.999Z,69.80
2017-08-27T03:03:54.479Z,70.00
2017-08-27T03:06:22.056Z,70.10
2017-08-27T03:08:49.536Z,70.20
2017-08-27T03:11:17.031Z,70.20
2017-08-27T03:13:44.524Z,70.30
2017-08-27T03:16:12.008Z,70.30
2017-08-27T03:18:39.516Z,70.50
2017-08-27T03:21:07.007Z,70.70
2017-08-27T03:23:34.488Z,70.70
2017-08-27T03:26:01.985Z,71.00
2017-08-27T03:28:29.464Z,71.00
2017-08-27T03:30:56.976Z,71.10
2017-08-27T03:33:24.504Z,71.10
2017-08-27T03:35:51.983Z,71.10
2017-08-27T03:38:19.520Z,71.20
2017-08-27T03:40:46.996Z,71.10
2017-08-27T03:43:14.540Z,71.10
2017-08-27T03:45:42.100Z,71.20
2017-08-27T03:48:09.663Z,71.50
2017-08-27T03:50:37.151Z,71.60
2017-08-27T03:53:04.636Z,71.70
2017-08-27T03:55:32.132Z,71.60
2017-08-27T03:57:59.616Z,71.70
2017-08-27T04:00:27.092Z,71.90
2017-08-27T04:02:54.580Z,71.90
2017-08-27T04:05:22.047Z,72.10
2017-08-27T04:07:49.548Z,72.20
2017-08-27T04:10:17.032Z,72.00
2017-08-27T04:12:44.510Z,72.10
2017-08-27T04:15:12.019Z,72.30
2017-08-27T04:17:39.497Z,72.40
2017-08-27T04:20:06.991Z,72.50
2017-08-27T04:22:34.476Z,72.50
2017-08-27T04:25:01.955Z,72.50
2017-08-27T04:27:29.447Z,72.70
2017-08-27T04:29:56.924Z,72.80
2017-08-27T04:32:24.460Z,72.80
2017-08-27T04:34:51.934Z,73.00
2017-08-27T04:37:19.415Z,73.10
2017-08-27T04:39:46.923Z,73.00
2017-08-27T04:42:14.452Z,73.00
2017-08-27T04:44:41.960Z,73.00
2017-08-27T04:47:09.432Z,73.10
2017-08-27T04:49:36.927Z,73.10
2017-08-27T04:52:04.478Z,73.30
2017-08-27T04:54:31.966Z,73.30
2017-08-27T04:56:59.509Z,74.10
2017-08-27T04:59:27.096Z,73.70
2017-08-27T05:01:54.591Z,73.80
2017-08-27T05:04:22.092Z,73.80
2017-08-27T05:06:49.566Z,73.90
2017-08-27T05:09:17.060Z,73.60
2017-08-27T05:11:44.544Z,73.60
2017-08-27T05:14:12.021Z,73.50
2017-08-27T05:16:39.520Z,73.60
2017-08-27T05:19:06.996Z,73.10
2017-08-27T05:21:34.516Z,73.10
2017-08-27T05:24:01.987Z,73.10
2017-08-27T05:26:29.465Z,73.10
2017-08-27T05:28:56.963Z,73.10
2017-08-27T05:31:24.440Z,73.20
2017-08-27T05:33:51.937Z,73.40
2017-08-27T05:36:19.416Z,73.30
2017-08-27T05:38:46.896Z,73.50
2017-08-27T05:41:14.386Z,73.30
2017-08-27T05:43:41.865Z,73.60
2017-08-27T05:46:09.364Z,73.40
2017-08-27T05:48:36.840Z,73.50
2017-08-27T05:51:04.319Z,73.80
2017-08-27T05:53:31.815Z,74.00
2017-08-27T05:55:59.298Z,74.00
2017-08-27T05:58:26.799Z,74.10
2017-08-27T06:00:54.272Z,74.80
2017-08-27T06:03:21.779Z,74.30
2017-08-27T06:05:49.272Z,74.50
2017-08-27T06:08:16.747Z,74.60
2017-08-27T06:10:44.247Z,74.50
2017-08-27T06:13:11.728Z,74.60
2017-08-27T06:15:39.235Z,74.80
2017-08-27T06:18:07.448Z,74.90
2017-08-27T06:20:34.923Z,74.80
2017-08-27T06:23:02.423Z,74.80
2017-08-27T06:25:29.895Z,74.80
2017-08-27T06:27:57.380Z,74.60
2017-08-27T06:30:24.940Z,74.50
2017-08-27T06:32:52.416Z,74.70
2017-08-27T06:35:19.919Z,75.10
2017-08-27T06:37:47.395Z,74.80
2017-08-27T06:40:14.871Z,74.10
2017-08-27T06:42:42.365Z,74.00
2017-08-27T06:45:09.859Z,73.90
2017-08-27T06:47:37.366Z,74.10
2017-08-27T06:50:04.848Z,73.80
2017-08-27T06:52:32.332Z,73.80
2017-08-27T06:54:59.923Z,73.90
2017-08-27T06:57:27.399Z,74.10
2017-08-27T06:59:54.896Z,74.00
2017-08-27T07:02:22.372Z,74.20
2017-08-27T07:04:49.847Z,74.10
2017-08-27T07:07:17.340Z,74.30
2017-08-27T07:09:44.821Z,74.40
2017-08-27T07:12:12.354Z,74.10
2017-08-27T07:14:39.835Z,73.90
2017-08-27T07:17:07.316Z,73.40
2017-08-27T07:19:34.803Z,73.10
2017-08-27T07:22:02.275Z,73.10
2017-08-27T07:24:29.779Z,72.60
2017-08-27T07:26:57.261Z,72.40
2017-08-27T07:29:24.843Z,72.50
2017-08-27T07:31:52.440Z,72.70
2017-08-27T07:34:19.920Z,72.40
2017-08-27T07:36:47.426Z,71.60
2017-08-27T07:39:14.910Z,71.80
2017-08-27T07:41:42.392Z,71.50
2017-08-27T07:44:09.896Z,71.50
2017-08-27T07:46:37.375Z,71.70
2017-08-27T07:49:04.884Z,72.10
2017-08-27T07:51:32.365Z,71.50
2017-08-27T07:53:59.852Z,71.20
2017-08-27T07:56:27.410Z,70.70
2017-08-27T07:58:54.987Z,70.30
2017-08-27T08:01:22.491Z,70.00
2017-08-27T08:03:49.974Z,68.40
2017-08-27T08:06:17.451Z,67.30
2017-08-27T08:08:44.947Z,67.20
2017-08-27T08:11:12.426Z,67.00
2017-08-27T08:13:39.919Z,68.00
2017-08-27T08:16:07.454Z,67.50
2017-08-27T08:18:34.962Z,67.00
2017-08-27T08:21:02.452Z,67.30
2017-08-27T08:23:29.937Z,66.00
2017-08-27T08:25:57.439Z,65.90
2017-08-27T08:28:24.935Z,65.80
2017-08-27T08:30:52.516Z,65.70
2017-08-27T08:33:20.014Z,65.90
2017-08-27T08:35:47.502Z,65.50
2017-08-27T08:38:14.999Z,64.90
2017-08-27T08:40:42.476Z,64.70
2017-08-27T08:43:09.956Z,64.60
2017-08-27T08:45:37.448Z,63.30
2017-08-27T08:48:04.936Z,63.30
2017-08-27T08:50:32.441Z,62.60
2017-08-27T08:52:59.924Z,62.70
2017-08-27T08:55:27.404Z,61.60
2017-08-27T08:57:54.895Z,61.70
2017-08-27T09:00:22.385Z,61.50
2017-08-27T09:02:49.884Z,61.20
2017-08-27T09:05:17.436Z,62.00
2017-08-27T09:07:44.915Z,61.30
2017-08-27T09:10:12.412Z,61.30
2017-08-27T09:12:39.892Z,61.60
2017-08-27T09:15:07.400Z,60.40
2017-08-27T09:17:34.991Z,60.70
2017-08-27T09:20:02.472Z,59.60
2017-08-27T09:22:29.964Z,59.30
2017-08-27T09:24:57.454Z,59.00
2017-08-27T09:27:25.064Z,58.70
2017-08-27T09:29:52.548Z,58.50
2017-08-27T09:32:20.043Z,58.20
2017-08-27T09:34:47.625Z,58.00
2017-08-27T09:37:15.105Z,58.20
2017-08-27T09:39:42.697Z,57.40
2017-08-27T09:42:10.219Z,57.50
2017-08-27T09:44:37.698Z,57.40
2017-08-27T09:47:05.212Z,57.60
2017-08-27T09:49:32.696Z,57.70
2017-08-27T09:52:00.201Z,57.80
2017-08-27T09:54:28.865Z,57.40
2017-08-27T09:56:56.347Z,57.70
2017-08-27T09:59:23.849Z,57.60
2017-08-27T10:01:51.344Z,56.50
2017-08-27T10:04:18.850Z,56.00
2017-08-27T10:06:46.335Z,57.00
2017-08-27T10:09:13.816Z,56.70
2017-08-27T10:11:41.316Z,56.40
2017-08-27T10:14:08.803Z,57.00
2017-08-27T10:16:36.307Z,57.30
2017-08-27T10:19:03.789Z,56.90
2017-08-27T10:21:31.268Z,57.40
2017-08-27T10:23:58.759Z,56.40
2017-08-27T10:26:26.238Z,56.00
2017-08-27T10:28:53.967Z,55.10
2017-08-27T10:31:21.443Z,55.60
2017-08-27T10:33:48.915Z,54.80
2017-08-27T10:36:16.443Z,55.50
2017-08-27T10:38:43.916Z,55.20
2017-08-27T10:41:11.415Z,54.50
2017-08-27T10:43:39.848Z,53.90
2017-08-27T10:46:07.330Z,53.70
2017-08-27T10:48:34.821Z,52.90
2017-08-27T10:51:02.292Z,53.30
2017-08-27T10:53:29.799Z,52.80
2017-08-27T10:55:57.279Z,53.00
2017-08-27T10:58:24.759Z,52.90
2017-08-27T11:00:52.343Z,51.80
2017-08-27T11:03:19.823Z,51.50
2017-08-27T11:05:47.331Z,51.70
2017-08-27T11:08:14.816Z,51.80
2017-08-27T11:10:42.316Z,52.00
2017-08-27T11:13:09.815Z,51.60
2017-08-27T11:15:37.316Z,51.30
2017-08-27T11:18:04.824Z,50.80
2017-08-27T11:20:32.308Z,50.70
2017-08-27T11:22:59.788Z,51.00
2017-08-27T11:25:27.354Z,51.40
2017-08-27T11:27:54.840Z,50.90
2017-08-27T11:30:22.352Z,51.30
2017-08-27T11:32:49.864Z,51.40
2017-08-27T11:35:17.348Z,51.20
2017-08-27T11:37:44.928Z,50.00
2017-08-27T11:40:12.411Z,49.70
2017-08-27T11:42:39.996Z,49.70
2017-08-27T11:45:07.514Z,50.10
2017-08-27T11:47:35.068Z,49.60
2017-08-27T11:50:02.562Z,49.40
2017-08-27T11:52:30.059Z,49.30
2017-08-27T11:54:57.586Z,49.00
2017-08-27T11:57:25.063Z,48.70
2017-08-27T11:59:52.544Z,48.30
2017-08-27T12:02:20.040Z,49.00
2017-08-27T12:04:47.564Z,48.60
2017-08-27T12:07:15.072Z,49.50
2017-08-27T12:09:42.543Z,49.80
2017-08-27T12:12:10.019Z,48.90
2017-08-27T12:14:37.577Z,47.70
2017-08-27T12:17:05.047Z,46.80
2017-08-27T12:19:32.642Z,47.50
2017-08-27T12:22:00.126Z,47.20
2017-08-27T12:24:27.602Z,46.90
2017-08-27T12:26:55.122Z,48.00
2017-08-27T12:29:22.600Z,45.60
2017-08-27T12:31:50.161Z,46.20
2017-08-27T12:34:17.643Z,45.40
2017-08-27T12:36:45.123Z,44.90
2017-08-27T12:39:12.704Z,44.50
2017-08-27T12:41:40.176Z,43.50
2017-08-27T12:44:07.717Z,44.00
2017-08-27T12:46:35.210Z,42.90
2017-08-27T12:49:02.686Z,43.20
2017-08-27T12:51:30.196Z,42.90
2017-08-27T12:53:57.667Z,42.20
2017-08-27T12:56:25.157Z,43.90
2017-08-27T12:58:52.708Z,42.00
2017-08-27T13:01:20.191Z,41.70
2017-08-27T13:03:47.784Z,40.40
2017-08-27T13:06:15.327Z,40.00
2017-08-27T13:08:42.823Z,39.90
2017-08-27T13:11:10.315Z,39.60
2017-08-27T13:13:37.796Z,39.60
2017-08-27T13:16:05.295Z,38.20
2017-08-27T13:18:32.768Z,36.90
2017-08-27T13:21:00.261Z,36.50
2017-08-27T13:23:27.738Z,37.40
2017-08-27T13:25:55.209Z,37.00
2017-08-27T13:28:22.699Z,35.50
2017-08-27T13:30:50.183Z,35.40
2017-08-27T13:33:17.683Z,34.80
2017-08-27T13:35:45.155Z,34.50
2017-08-27T13:38:12.632Z,34.70
2017-08-27T13:40:40.308Z,34.60
2017-08-27T13:43:07.805Z,35.40
2017-08-27T13:45:35.299Z,34.70
2017-08-27T13:48:02.820Z,33.50
2017-08-27T13:50:30.297Z,33.30
2017-08-27T13:52:57.787Z,34.60
2017-08-27T13:55:25.316Z,33.00
2017-08-27T13:57:52.859Z,33.40
2017-08-27T14:00:20.339Z,32.10
2017-08-27T14:02:47.815Z,32.70
2017-08-27T14:05:15.311Z,30.90
2017-08-27T14:07:42.779Z,30.50
2017-08-27T14:10:10.269Z,30.50
2017-08-27T14:12:37.744Z,30.80
2017-08-27T14:15:05.230Z,30.90
2017-08-27T14:17:32.763Z,30.80
2017-08-27T14:20:00.236Z,31.50
2017-08-27T14:22:27.785Z,32.40
2017-08-27T14:24:55.262Z,33.60
2017-08-27T14:27:22.746Z,34.30
2017-08-27T14:29:50.292Z,35.50
2017-08-27T14:32:17.766Z,36.30
2017-08-27T14:34:45.486Z,37.00
2017-08-27T14:37:12.968Z,37.10
2017-08-27T14:39:40.473Z,37.80
2017-08-27T14:42:07.968Z,37.80
2017-08-27T14:44:35.437Z,38.20
2017-08-27T14:47:02.927Z,37.70
2017-08-27T14:49:30.406Z,38.10
2017-08-27T14:51:57.903Z,38.50
2017-08-27T14:54:25.396Z,39.00
2017-08-27T14:56:52.871Z,38.20
2017-08-27T14:59:20.364Z,38.70
2017-08-27T15:01:47.835Z,38.70
2017-08-27T15:04:15.325Z,39.10
2017-08-27T15:06:42.826Z,38.80
2017-08-27T15:09:10.387Z,39.40
2017-08-27T15:11:37.888Z,38.90
2017-08-27T15:14:05.368Z,39.20
2017-08-27T15:16:32.839Z,38.80
2017-08-27T15:19:00.428Z,40.00
2017-08-27T15:21:27.903Z,39.50
2017-08-27T15:23:55.403Z,39.70
2017-08-27T15:26:22.875Z,39.80
2017-08-27T15:28:50.351Z,40.10
2017-08-27T15:31:17.953Z,40.10
2017-08-27T15:33:45.435Z,40.00
2017-08-27T15:36:12.939Z,39.70
2017-08-27T15:38:40.412Z,39.30
2017-08-27T15:41:07.886Z,39.80
2017-08-27T15:43:35.418Z,39.50
2017-08-27T15:46:02.936Z,39.70
2017-08-27T15:48:30.432Z,39.40
2017-08-27T15:50:57.909Z,40.00
2017-08-27T15:53:25.419Z,40.20
2017-08-27T15:55:52.909Z,39.80
2017-08-27T15:58:20.388Z,39.80
2017-08-27T16:00:47.883Z,39.70
2017-08-27T16:03:15.359Z,39.50
2017-08-27T16:05:42.842Z,39.80
2017-08-27T16:08:10.342Z,39.70
2017-08-27T16:10:37.848Z,39.60
2017-08-27T16:13:05.332Z,40.10
2017-08-27T16:15:32.809Z,39.20
2017-08-27T16:18:00.280Z,40.00
2017-08-27T16:20:27.797Z,40.40
2017-08-27T16:22:55.284Z,39.70
2017-08-27T16:25:22.775Z,39.50
2017-08-27T16:27:50.243Z,39.80
2017-08-27T16:30:17.712Z,39.60
2017-08-27T16:32:45.206Z,39.50
2017-08-27T16:35:12.703Z,39.60
2017-08-27T16:37:40.191Z,39.10
2017-08-27T16:40:07.675Z,39.20
2017-08-27T16:42:35.170Z,39.50
2017-08-27T16:45:02.684Z,38.90
2017-08-27T16:47:37.931Z,39.00
2017-08-27T16:50:05.428Z,39.10
2017-08-27T16:52:32.938Z,38.20
2017-08-27T16:55:00.411Z,38.60
2017-08-27T16:57:27.931Z,38.70
2017-08-27T16:59:55.406Z,39.20
2017-08-27T17:02:22.896Z,38.80
2017-08-27T17:04:50.427Z,38.10
2017-08-27T17:07:17.908Z,38.50
2017-08-27T17:09:45.404Z,38.80
2017-08-27T17:12:12.876Z,38.70
2017-08-27T17:14:40.371Z,38.60
2017-08-27T17:17:07.853Z,38.70
2017-08-27T17:19:35.322Z,39.20
2017-08-27T17:22:02.871Z,38.50
2017-08-27T17:24:30.364Z,38.80
2017-08-27T17:26:58.067Z,38.60
2017-08-27T17:29:25.571Z,38.70
2017-08-27T17:31:53.075Z,38.80
2017-08-27T17:34:20.576Z,39.00
2017-08-27T17:36:48.054Z,39.70
2017-08-27T17:39:15.564Z,39.40
2017-08-27T17:41:43.045Z,39.60
2017-08-27T17:44:10.513Z,39.40
2017-08-27T17:46:37.999Z,39.60
2017-08-27T17:49:05.476Z,39.70
2017-08-27T17:51:32.972Z,39.80
2017-08-27T17:54:00.464Z,39.90
2017-08-27T17:56:28.022Z,40.30
2017-08-27T17:58:55.517Z,40.50
2017-08-27T18:01:22.993Z,41.40
2017-08-27T18:03:50.484Z,41.20
2017-08-27T18:06:17.956Z,41.60
2017-08-27T18:08:45.460Z,42.10
2017-08-27T18:11:12.952Z,42.50
2017-08-27T18:13:40.456Z,43.00
2017-08-27T18:16:08.019Z,43.20
2017-08-27T18:18:35.531Z,43.50
2017-08-27T18:21:03.063Z,43.70
2017-08-27T18:23:30.555Z,43.80
2017-08-27T18:25:58.891Z,43.40
2017-08-27T18:28:26.482Z,43.50
2017-08-27T18:30:53.975Z,43.80
2017-08-27T18:33:21.502Z,43.80
2017-08-27T18:35:49.021Z,44.20
2017-08-27T18:38:16.492Z,44.50
2017-08-27T18:40:43.980Z,45.00
2017-08-27T18:43:11.459Z,45.50
2017-08-27T18:45:38.931Z,45.30
2017-08-27T18:48:06.420Z,45.90
2017-08-27T18:50:33.907Z,46.50
2017-08-27T18:53:01.530Z,46.50
2017-08-27T18:55:29.103Z,46.80
2017-08-27T18:57:56.583Z,47.00
2017-08-27T19:00:24.068Z,47.40
2017-08-27T19:03:06.438Z,48.00
2017-08-27T19:05:34.695Z,48.40
2017-08-27T19:08:02.167Z,48.30
2017-08-27T19:10:29.659Z,48.20
2017-08-27T19:12:57.207Z,47.90
2017-08-27T19:15:24.825Z,47.70
2017-08-27T19:17:52.344Z,48.00
2017-08-27T19:20:19.813Z,48.10
2017-08-27T19:22:47.283Z,47.40
2017-08-27T19:25:14.787Z,47.40
2017-08-27T19:27:42.268Z,47.20
2017-08-27T19:30:09.759Z,47.50
2017-08-27T19:32:37.232Z,47.60
2017-08-27T19:35:04.718Z,47.90
2017-08-27T19:37:32.259Z,48.40
2017-08-27T19:39:59.740Z,49.20
2017-08-27T19:42:27.282Z,49.50
2017-08-27T19:44:54.748Z,49.80
2017-08-27T19:47:22.228Z,50.00
2017-08-27T19:49:49.732Z,50.30
2017-08-27T19:52:17.208Z,50.90
2017-08-27T19:54:44.700Z,50.70
2017-08-27T19:57:12.176Z,51.70
2017-08-27T19:59:39.688Z,51.20
2017-08-27T20:02:07.176Z,51.20
2017-08-27T20:04:34.673Z,51.30
2017-08-27T20:07:02.163Z,51.20
2017-08-27T20:09:29.635Z,51.20
2017-08-27T20:11:57.114Z,51.50
2017-08-27T20:14:24.605Z,51.40
2017-08-27T20:16:52.091Z,51.30
2017-08-27T20:19:19.599Z,51.60
2017-08-27T20:21:47.075Z,52.10
2017-08-27T20:24:14.565Z,52.10
2017-08-27T20:26:42.084Z,52.50
2017-08-27T20:29:09.554Z,53.60
2017-08-27T20:31:37.145Z,53.40
2017-08-27T20:34:04.625Z,53.50
2017-08-27T20:36:32.107Z,53.30
2017-08-27T20:38:59.601Z,53.20
2017-08-27T20:41:27.094Z,53.40
2017-08-27T20:43:54.604Z,53.40
2017-08-27T20:46:22.079Z,53.60
2017-08-27T20:48:49.559Z,54.00
2017-08-27T20:51:17.061Z,54.00
2017-08-27T20:53:44.544Z,54.50
2017-08-27T20:56:12.047Z,54.40
2017-08-27T20:58:39.522Z,54.50
2017-08-27T21:01:07.007Z,54.60
2017-08-27T21:03:34.520Z,54.60
2017-08-27T21:06:02.107Z,54.80
2017-08-27T21:08:29.596Z,55.00
2017-08-27T21:10:57.064Z,55.20
2017-08-27T21:13:24.540Z,55.10
2017-08-27T21:15:52.040Z,55.90
2017-08-27T21:18:19.529Z,55.60
2017-08-27T21:20:47.036Z,55.50
2017-08-27T21:23:14.504Z,55.30
2017-08-27T21:25:41.993Z,56.00
2017-08-27T21:28:09.488Z,56.10
2017-08-27T21:30:36.963Z,55.90
2017-08-27T21:33:04.459Z,56.10
2017-08-27T21:35:31.937Z,56.50
2017-08-27T21:37:59.407Z,56.40
2017-08-27T21:40:26.988Z,56.40
2017-08-27T21:42:54.456Z,56.50
2017-08-27T21:45:22.003Z,56.80
2017-08-27T21:47:49.488Z,56.90
2017-08-27T21:50:16.959Z,57.00
2017-08-27T21:52:44.482Z,56.80
2017-08-27T21:55:11.947Z,56.70
2017-08-27T21:57:39.504Z,56.70
2017-08-27T22:00:07.024Z,57.10
2017-08-27T22:02:34.492Z,56.90
2017-08-27T22:05:01.985Z,56.80
2017-08-27T22:07:29.450Z,56.80
2017-08-27T22:09:57.008Z,56.60
2017-08-27T22:12:24.581Z,56.60
2017-08-27T22:14:52.046Z,56.50
2017-08-27T22:17:19.539Z,56.60
2017-08-27T22:19:47.021Z,56.70
2017-08-27T22:22:14.513Z,57.10
2017-08-27T22:24:41.979Z,57.00
2017-08-27T22:27:09.449Z,57.00
2017-08-27T22:29:36.932Z,56.70
2017-08-27T22:32:04.405Z,56.70
2017-08-27T22:34:31.907Z,56.80
2017-08-27T22:36:59.383Z,57.00
2017-08-27T22:39:26.851Z,56.90
2017-08-27T22:41:54.347Z,56.90
2017-08-27T22:44:21.815Z,56.80
2017-08-27T22:46:49.318Z,56.70
2017-08-27T22:49:16.791Z,57.10
2017-08-27T22:51:44.268Z,57.40
2017-08-27T22:54:11.765Z,57.20
2017-08-27T22:56:39.233Z,57.30
2017-08-27T22:59:06.736Z,57.60
2017-08-27T23:01:34.211Z,57.40
2017-08-27T23:04:01.688Z,58.00
2017-08-27T23:06:29.187Z,57.80
2017-08-27T23:08:56.680Z,57.80
2017-08-27T23:11:24.179Z,57.60
2017-08-27T23:13:51.647Z,57.80
2017-08-27T23:16:19.123Z,57.90
2017-08-27T23:18:47.535Z,57.90
2017-08-27T23:21:15.005Z,58.10
2017-08-27T23:23:42.516Z,57.90
2017-08-27T23:26:09.983Z,58.00
2017-08-27T23:28:37.460Z,57.50
2017-08-27T23:31:04.951Z,57.70
2017-08-27T23:33:32.419Z,57.80
2017-08-27T23:35:59.920Z,57.90
2017-08-27T23:38:27.393Z,58.10
2017-08-27T23:40:54.885Z,58.50
2017-08-27T23:43:22.374Z,58.90
2017-08-27T23:45:49.851Z,58.50
2017-08-27T23:48:17.351Z,58.20
2017-08-27T23:50:44.885Z,58.60
2017-08-27T23:53:12.360Z,59.50
2017-08-27T23:55:39.860Z,60.00
2017-08-27T23:58:07.342Z,60.20
